sensor_id;sensor_type;location;lat;lon;timestamp;pressure;altitude;pressure_sealevel;temperature;humidity
80911;BME280;70359;51.420;7.032;2023-12-20T00:02:05;999.671;;;9.85;66.55762
80911;BME280;70359;51.420;7.032;2023-12-20T00:04:30;999.6699;;;9.9;66.52148
80911;BME280;70359;51.420;7.032;2023-12-20T00:06:55;999.6674;;;9.87;66.85547
80911;BME280;70359;51.420;7.032;2023-12-20T00:09:20;999.6415;;;9.9;66.56641
80911;BME280;70359;51.420;7.032;2023-12-20T00:11:45;999.6175;;;9.85;66.70605
80911;BME280;70359;51.420;7.032;2023-12-20T00:14:10;999.6606;;;9.82;66.74609
80911;BME280;70359;51.420;7.032;2023-12-20T00:16:35;999.6442;;;9.78;66.97656
80911;BME280;70359;51.420;7.032;2023-12-20T00:19:01;999.6523;;;9.81;66.53027
80911;BME280;70359;51.420;7.032;2023-12-20T00:21:25;999.6524;;;9.84;66.52441
80911;BME280;70359;51.420;7.032;2023-12-20T00:23:51;999.6696;;;9.91;65.53027
80911;BME280;70359;51.420;7.032;2023-12-20T00:26:16;999.7247;;;9.83;66.13672
80911;BME280;70359;51.420;7.032;2023-12-20T00:28:41;999.7603;;;9.86;65.98438
80911;BME280;70359;51.420;7.032;2023-12-20T00:31:06;999.795;;;9.79;66.33594
80911;BME280;70359;51.420;7.032;2023-12-20T00:33:31;999.8348;;;9.84;66.12988
80911;BME280;70359;51.420;7.032;2023-12-20T00:35:56;999.8645;;;9.82;65.88867
80911;BME280;70359;51.420;7.032;2023-12-20T00:38:21;999.9114;;;9.88;65.68359
80911;BME280;70359;51.420;7.032;2023-12-20T00:40:46;999.9097;;;9.89;65.3584
80911;BME280;70359;51.420;7.032;2023-12-20T00:43:11;999.8873;;;9.92;65.02344
80911;BME280;70359;51.420;7.032;2023-12-20T00:45:36;999.8994;;;9.87;64.81445
80911;BME280;70359;51.420;7.032;2023-12-20T00:48:01;999.9308;;;9.88;64.93848
80911;BME280;70359;51.420;7.032;2023-12-20T00:50:26;999.952;;;9.82;65.02051
80911;BME280;70359;51.420;7.032;2023-12-20T00:52:51;1000.033;;;9.7;65.12598
80911;BME280;70359;51.420;7.032;2023-12-20T00:55:16;1000.109;;;9.69;65.19336
80911;BME280;70359;51.420;7.032;2023-12-20T00:57:41;1000.097;;;9.67;65.26855
80911;BME280;70359;51.420;7.032;2023-12-20T01:00:06;1000.094;;;9.65;65.18652
80911;BME280;70359;51.420;7.032;2023-12-20T01:02:31;1000.076;;;9.61;65.44043
80911;BME280;70359;51.420;7.032;2023-12-20T01:04:56;1000.061;;;9.7;65.11621
80911;BME280;70359;51.420;7.032;2023-12-20T01:07:21;1000.066;;;9.59;64.75977
80911;BME280;70359;51.420;7.032;2023-12-20T01:09:46;999.9697;;;9.53;65.10254
80911;BME280;70359;51.420;7.032;2023-12-20T01:12:11;999.9925;;;9.49;65.19629
80911;BME280;70359;51.420;7.032;2023-12-20T01:14:36;999.9727;;;9.49;64.64551
80911;BME280;70359;51.420;7.032;2023-12-20T01:17:01;999.9647;;;9.42;65.32227
80911;BME280;70359;51.420;7.032;2023-12-20T01:19:26;999.9321;;;9.44;65.45898
80911;BME280;70359;51.420;7.032;2023-12-20T01:21:51;999.9874;;;9.44;65.15625
80911;BME280;70359;51.420;7.032;2023-12-20T01:24:16;1000;;;9.42;64.68945
80911;BME280;70359;51.420;7.032;2023-12-20T01:26:41;1000.013;;;9.31;65.03418
80911;BME280;70359;51.420;7.032;2023-12-20T01:29:06;1000.087;;;9.3;64.53906
80911;BME280;70359;51.420;7.032;2023-12-20T01:31:31;1000.156;;;9.32;64.70996
80911;BME280;70359;51.420;7.032;2023-12-20T01:33:56;1000.192;;;9.31;64.62988
80911;BME280;70359;51.420;7.032;2023-12-20T01:36:21;1000.155;;;9.31;64.63965
80911;BME280;70359;51.420;7.032;2023-12-20T01:38:46;1000.215;;;9.26;64.39648
80911;BME280;70359;51.420;7.032;2023-12-20T01:41:11;1000.315;;;9.27;64.47656
80911;BME280;70359;51.420;7.032;2023-12-20T01:43:36;1000.244;;;9.33;64.40723
80911;BME280;70359;51.420;7.032;2023-12-20T01:46:01;1000.29;;;9.32;64.28027
80911;BME280;70359;51.420;7.032;2023-12-20T01:48:26;1000.27;;;9.25;64.66699
80911;BME280;70359;51.420;7.032;2023-12-20T01:50:51;1000.276;;;9.25;64.57422
80911;BME280;70359;51.420;7.032;2023-12-20T01:53:16;1000.322;;;9.21;64.90723
80911;BME280;70359;51.420;7.032;2023-12-20T01:55:41;1000.243;;;9.18;65.13965
80911;BME280;70359;51.420;7.032;2023-12-20T01:58:06;1000.216;;;9.36;64.12988
80911;BME280;70359;51.420;7.032;2023-12-20T02:00:31;1000.195;;;9.4;64.00098
80911;BME280;70359;51.420;7.032;2023-12-20T02:02:56;1000.183;;;9.26;64.10352
80911;BME280;70359;51.420;7.032;2023-12-20T02:05:21;1000.199;;;9.31;63.88477
80911;BME280;70359;51.420;7.032;2023-12-20T02:07:46;1000.147;;;9.24;64.04492
80911;BME280;70359;51.420;7.032;2023-12-20T02:10:11;1000.191;;;9.13;64.16309
80911;BME280;70359;51.420;7.032;2023-12-20T02:12:36;1000.22;;;9.14;64.13086
80911;BME280;70359;51.420;7.032;2023-12-20T02:15:01;1000.251;;;9.11;63.67578
80911;BME280;70359;51.420;7.032;2023-12-20T02:17:26;1000.22;;;9.1;63.80957
80911;BME280;70359;51.420;7.032;2023-12-20T02:19:51;1000.218;;;9.04;63.47363
80911;BME280;70359;51.420;7.032;2023-12-20T02:22:16;1000.176;;;9.02;64.05664
80911;BME280;70359;51.420;7.032;2023-12-20T02:24:41;1000.17;;;9.05;63.9834
80911;BME280;70359;51.420;7.032;2023-12-20T02:27:06;1000.107;;;9.01;64.10254
80911;BME280;70359;51.420;7.032;2023-12-20T02:29:31;1000.08;;;9.07;63.63672
80911;BME280;70359;51.420;7.032;2023-12-20T02:31:56;1000.128;;;8.97;63.8252
80911;BME280;70359;51.420;7.032;2023-12-20T02:34:21;1000.18;;;8.9;64.08496
80911;BME280;70359;51.420;7.032;2023-12-20T02:36:46;1000.158;;;9.01;63.9541
80911;BME280;70359;51.420;7.032;2023-12-20T02:39:11;1000.203;;;8.79;64.30566
80911;BME280;70359;51.420;7.032;2023-12-20T02:41:36;1000.24;;;8.78;65.12402
80911;BME280;70359;51.420;7.032;2023-12-20T02:44:01;1000.268;;;8.74;65.12988
80911;BME280;70359;51.420;7.032;2023-12-20T02:46:26;1000.207;;;8.84;64.71875
80911;BME280;70359;51.420;7.032;2023-12-20T02:48:51;1000.243;;;8.88;64.53223
80911;BME280;70359;51.420;7.032;2023-12-20T02:51:16;1000.224;;;8.85;64.32422
80911;BME280;70359;51.420;7.032;2023-12-20T02:53:41;1000.201;;;8.83;64.30078
80911;BME280;70359;51.420;7.032;2023-12-20T02:56:06;1000.191;;;8.82;64.52344
80911;BME280;70359;51.420;7.032;2023-12-20T02:58:31;1000.194;;;8.8;64.25
80911;BME280;70359;51.420;7.032;2023-12-20T03:00:56;1000.237;;;8.75;64.12988
80911;BME280;70359;51.420;7.032;2023-12-20T03:03:21;1000.298;;;8.84;63.48047
80911;BME280;70359;51.420;7.032;2023-12-20T03:05:46;1000.286;;;8.9;63.4209
80911;BME280;70359;51.420;7.032;2023-12-20T03:08:11;1000.318;;;8.79;63.80859
80911;BME280;70359;51.420;7.032;2023-12-20T03:10:36;1000.226;;;8.72;63.54102
80911;BME280;70359;51.420;7.032;2023-12-20T03:13:01;1000.149;;;8.82;63.72363
80911;BME280;70359;51.420;7.032;2023-12-20T03:15:26;1000.12;;;8.83;62.91602
80911;BME280;70359;51.420;7.032;2023-12-20T03:17:51;1000.175;;;8.86;62.72754
80911;BME280;70359;51.420;7.032;2023-12-20T03:20:16;1000.246;;;8.76;62.97168
80911;BME280;70359;51.420;7.032;2023-12-20T03:22:41;1000.214;;;8.72;63.2373
80911;BME280;70359;51.420;7.032;2023-12-20T03:25:06;1000.167;;;8.69;62.96289
80911;BME280;70359;51.420;7.032;2023-12-20T03:27:31;1000.209;;;8.7;62.81641
80911;BME280;70359;51.420;7.032;2023-12-20T03:29:56;1000.214;;;8.73;62.45117
80911;BME280;70359;51.420;7.032;2023-12-20T03:32:21;1000.313;;;8.52;63.31934
80911;BME280;70359;51.420;7.032;2023-12-20T03:34:46;1000.264;;;8.5;63.56445
80911;BME280;70359;51.420;7.032;2023-12-20T03:37:11;1000.166;;;8.51;63.55469
80911;BME280;70359;51.420;7.032;2023-12-20T03:39:36;1000.166;;;8.34;63.90039
80911;BME280;70359;51.420;7.032;2023-12-20T03:42:01;1000.114;;;8.43;63.64551
80911;BME280;70359;51.420;7.032;2023-12-20T03:44:26;1000.129;;;8.24;64.21191
80911;BME280;70359;51.420;7.032;2023-12-20T03:46:51;1000.124;;;8.29;64.49023
80911;BME280;70359;51.420;7.032;2023-12-20T03:49:16;1000.12;;;8.29;64.08496
80911;BME280;70359;51.420;7.032;2023-12-20T03:51:41;1000.075;;;8.36;63.83691
80911;BME280;70359;51.420;7.032;2023-12-20T03:54:06;1000.151;;;8.24;64.25781
80911;BME280;70359;51.420;7.032;2023-12-20T03:56:31;1000.203;;;8.25;64.49609
80911;BME280;70359;51.420;7.032;2023-12-20T03:58:56;1000.139;;;8.17;65.10156
80911;BME280;70359;51.420;7.032;2023-12-20T04:01:21;1000.157;;;8.36;63.93848
80911;BME280;70359;51.420;7.032;2023-12-20T04:03:46;1000.294;;;8.23;63.93066
80911;BME280;70359;51.420;7.032;2023-12-20T04:06:11;1000.158;;;8.28;63.98242
80911;BME280;70359;51.420;7.032;2023-12-20T04:08:36;1000.171;;;8.21;63.9834
80911;BME280;70359;51.420;7.032;2023-12-20T04:11:01;1000.165;;;8.25;63.93359
80911;BME280;70359;51.420;7.032;2023-12-20T04:13:26;1000.139;;;8.27;63.93457
80911;BME280;70359;51.420;7.032;2023-12-20T04:15:51;1000.037;;;8.22;64.04102
80911;BME280;70359;51.420;7.032;2023-12-20T04:18:16;1000.108;;;8.28;63.51074
80911;BME280;70359;51.420;7.032;2023-12-20T04:20:42;1000.056;;;8.27;63.54102
80911;BME280;70359;51.420;7.032;2023-12-20T04:23:06;999.9808;;;8.34;63.27051
80911;BME280;70359;51.420;7.032;2023-12-20T04:25:31;999.975;;;8.27;63.44141
80911;BME280;70359;51.420;7.032;2023-12-20T04:27:56;999.9769;;;8.26;63.34863
80911;BME280;70359;51.420;7.032;2023-12-20T04:30:21;1000.043;;;8.29;63.36523
80911;BME280;70359;51.420;7.032;2023-12-20T04:32:46;999.9891;;;8.26;63.73145
80911;BME280;70359;51.420;7.032;2023-12-20T04:35:11;1000.05;;;8.28;63.98242
80911;BME280;70359;51.420;7.032;2023-12-20T04:37:36;1000.043;;;8.3;63.95313
80911;BME280;70359;51.420;7.032;2023-12-20T04:40:01;1000.031;;;8.32;63.56055
80911;BME280;70359;51.420;7.032;2023-12-20T04:42:26;1000.038;;;8.31;63.68262
80911;BME280;70359;51.420;7.032;2023-12-20T04:44:51;1000.024;;;8.37;63.39941
80911;BME280;70359;51.420;7.032;2023-12-20T04:47:16;1000.065;;;8.24;63.82031
80911;BME280;70359;51.420;7.032;2023-12-20T04:49:41;1000.098;;;8.34;63.53027
80911;BME280;70359;51.420;7.032;2023-12-20T04:52:06;1000.036;;;8.12;64.09473
80911;BME280;70359;51.420;7.032;2023-12-20T04:54:31;1000.101;;;8.27;63.49805
80911;BME280;70359;51.420;7.032;2023-12-20T04:56:56;1000.163;;;8.18;63.93457
80911;BME280;70359;51.420;7.032;2023-12-20T04:59:21;1000.15;;;8.19;63.85742
80911;BME280;70359;51.420;7.032;2023-12-20T05:01:46;1000.141;;;8.17;63.82031
80911;BME280;70359;51.420;7.032;2023-12-20T05:04:11;1000.136;;;8.17;63.39355
80911;BME280;70359;51.420;7.032;2023-12-20T05:06:36;1000.166;;;8.07;64.14355
80911;BME280;70359;51.420;7.032;2023-12-20T05:09:01;1000.256;;;8.05;64.0166
80911;BME280;70359;51.420;7.032;2023-12-20T05:11:26;1000.235;;;7.98;64.67871
80911;BME280;70359;51.420;7.032;2023-12-20T05:13:54;1000.261;;;8.08;64.28906
80911;BME280;70359;51.420;7.032;2023-12-20T05:16:16;1000.169;;;8.01;64.34766
80911;BME280;70359;51.420;7.032;2023-12-20T05:18:41;1000.168;;;7.92;64.40137
80911;BME280;70359;51.420;7.032;2023-12-20T05:21:06;1000.155;;;8.01;64.01172
80911;BME280;70359;51.420;7.032;2023-12-20T05:23:31;1000.14;;;7.98;64.32129
80911;BME280;70359;51.420;7.032;2023-12-20T05:25:56;1000.165;;;8.07;64.17578
80911;BME280;70359;51.420;7.032;2023-12-20T05:28:21;1000.25;;;8.12;63.83691
80911;BME280;70359;51.420;7.032;2023-12-20T05:30:46;1000.243;;;8.09;63.75391
80911;BME280;70359;51.420;7.032;2023-12-20T05:33:11;1000.197;;;7.99;63.91797
80911;BME280;70359;51.420;7.032;2023-12-20T05:35:36;1000.174;;;8.03;63.99023
80911;BME280;70359;51.420;7.032;2023-12-20T05:38:01;1000.158;;;8.02;64.0459
80911;BME280;70359;51.420;7.032;2023-12-20T05:40:26;1000.122;;;8.04;63.90234
80911;BME280;70359;51.420;7.032;2023-12-20T05:42:51;1000.09;;;7.99;64.25488
80911;BME280;70359;51.420;7.032;2023-12-20T05:45:16;999.9811;;;7.96;63.94727
80911;BME280;70359;51.420;7.032;2023-12-20T05:47:41;999.967;;;8;64.12109
80911;BME280;70359;51.420;7.032;2023-12-20T05:50:06;999.9964;;;7.98;64.11914
80911;BME280;70359;51.420;7.032;2023-12-20T05:52:31;1000.067;;;7.89;64.59961
80911;BME280;70359;51.420;7.032;2023-12-20T05:54:56;1000.072;;;7.92;64.2334
80911;BME280;70359;51.420;7.032;2023-12-20T05:57:21;1000.078;;;7.85;64.62695
80911;BME280;70359;51.420;7.032;2023-12-20T05:59:46;1000.094;;;7.86;64.81934
80911;BME280;70359;51.420;7.032;2023-12-20T06:02:11;1000.066;;;7.93;64.25684
80911;BME280;70359;51.420;7.032;2023-12-20T06:04:36;1000.096;;;7.95;64.11328
80911;BME280;70359;51.420;7.032;2023-12-20T06:07:02;1000.068;;;7.95;64.0127
80911;BME280;70359;51.420;7.032;2023-12-20T06:09:26;999.9833;;;7.99;63.89453
80911;BME280;70359;51.420;7.032;2023-12-20T06:11:51;999.952;;;7.94;64.13477
80911;BME280;70359;51.420;7.032;2023-12-20T06:14:16;1000.01;;;7.91;64.28809
80911;BME280;70359;51.420;7.032;2023-12-20T06:16:41;1000.073;;;7.95;64.08008
80911;BME280;70359;51.420;7.032;2023-12-20T06:19:06;1000.137;;;8.01;63.76465
80911;BME280;70359;51.420;7.032;2023-12-20T06:21:31;1000.176;;;7.95;63.88867
80911;BME280;70359;51.420;7.032;2023-12-20T06:23:56;1000.158;;;7.88;64.16016
80911;BME280;70359;51.420;7.032;2023-12-20T06:26:21;1000.049;;;7.86;64.41504
80911;BME280;70359;51.420;7.032;2023-12-20T06:28:46;1000.016;;;7.94;64.33691
80911;BME280;70359;51.420;7.032;2023-12-20T06:31:11;1000.071;;;7.85;64.51465
80911;BME280;70359;51.420;7.032;2023-12-20T06:33:36;1000.083;;;7.94;64.28027
80911;BME280;70359;51.420;7.032;2023-12-20T06:36:01;1000.201;;;7.82;64.15137
80911;BME280;70359;51.420;7.032;2023-12-20T06:38:26;1000.073;;;7.86;64.58301
80911;BME280;70359;51.420;7.032;2023-12-20T06:40:51;1000.068;;;7.91;64.28711
80911;BME280;70359;51.420;7.032;2023-12-20T06:43:16;1000.09;;;7.79;64.71973
80911;BME280;70359;51.420;7.032;2023-12-20T06:45:41;1000.105;;;7.82;64.31934
80911;BME280;70359;51.420;7.032;2023-12-20T06:48:07;1000.194;;;7.78;64.69629
80911;BME280;70359;51.420;7.032;2023-12-20T06:50:31;1000.13;;;7.78;64.62891
80911;BME280;70359;51.420;7.032;2023-12-20T06:52:56;1000.096;;;7.78;64.9082
80911;BME280;70359;51.420;7.032;2023-12-20T06:55:21;1000.14;;;7.75;64.71289
80911;BME280;70359;51.420;7.032;2023-12-20T06:57:46;1000.121;;;7.73;65.14844
80911;BME280;70359;51.420;7.032;2023-12-20T07:00:12;1000.097;;;7.8;64.84375
80911;BME280;70359;51.420;7.032;2023-12-20T07:02:36;1000.086;;;7.74;64.7793
80911;BME280;70359;51.420;7.032;2023-12-20T07:05:01;1000.104;;;7.87;64.46191
80911;BME280;70359;51.420;7.032;2023-12-20T07:07:26;1000.101;;;7.79;64.66406
80911;BME280;70359;51.420;7.032;2023-12-20T07:09:52;1000.092;;;7.87;64.43945
80911;BME280;70359;51.420;7.032;2023-12-20T07:12:16;1000.009;;;7.74;64.71191
80911;BME280;70359;51.420;7.032;2023-12-20T07:14:41;1000.041;;;7.75;64.7793
80911;BME280;70359;51.420;7.032;2023-12-20T07:17:06;999.942;;;7.84;64.7168
80911;BME280;70359;51.420;7.032;2023-12-20T07:19:31;999.9623;;;7.92;64.46875
80911;BME280;70359;51.420;7.032;2023-12-20T07:21:56;999.9595;;;7.87;64.24902
80911;BME280;70359;51.420;7.032;2023-12-20T07:24:21;1000.014;;;7.84;64.41309
80911;BME280;70359;51.420;7.032;2023-12-20T07:26:46;999.954;;;7.81;64.62109
80911;BME280;70359;51.420;7.032;2023-12-20T07:29:11;1000.027;;;7.86;64.5625
80911;BME280;70359;51.420;7.032;2023-12-20T07:31:36;1000.012;;;7.83;64.52148
80911;BME280;70359;51.420;7.032;2023-12-20T07:34:01;1000.023;;;7.77;64.7832
80911;BME280;70359;51.420;7.032;2023-12-20T07:36:26;1000.01;;;7.79;64.77637
80911;BME280;70359;51.420;7.032;2023-12-20T07:38:51;1000.006;;;7.83;64.4668
80911;BME280;70359;51.420;7.032;2023-12-20T07:41:16;1000.099;;;7.66;65.12598
80911;BME280;70359;51.420;7.032;2023-12-20T07:43:41;1000.117;;;7.69;65.0625
80911;BME280;70359;51.420;7.032;2023-12-20T07:46:09;1000.11;;;7.7;65.22266
80911;BME280;70359;51.420;7.032;2023-12-20T07:48:31;1000.114;;;7.72;65.11328
80911;BME280;70359;51.420;7.032;2023-12-20T07:50:56;1000.109;;;7.75;65.0166
80911;BME280;70359;51.420;7.032;2023-12-20T07:53:21;1000.18;;;7.85;64.79492
80911;BME280;70359;51.420;7.032;2023-12-20T07:55:46;1000.096;;;7.86;64.77539
80911;BME280;70359;51.420;7.032;2023-12-20T07:58:12;1000.16;;;7.8;64.85449
80911;BME280;70359;51.420;7.032;2023-12-20T08:00:36;1000.121;;;7.82;64.87012
80911;BME280;70359;51.420;7.032;2023-12-20T08:03:02;1000.131;;;7.89;64.69922
80911;BME280;70359;51.420;7.032;2023-12-20T08:05:26;1000.064;;;7.98;64.51074
80911;BME280;70359;51.420;7.032;2023-12-20T08:07:51;999.9963;;;8.03;64.47363
80911;BME280;70359;51.420;7.032;2023-12-20T08:10:17;999.9146;;;7.97;64.4082
80911;BME280;70359;51.420;7.032;2023-12-20T08:12:42;999.9974;;;7.93;64.56055
80911;BME280;70359;51.420;7.032;2023-12-20T08:15:07;1000.095;;;7.98;63.99512
80911;BME280;70359;51.420;7.032;2023-12-20T08:17:32;1000.05;;;8.05;64.37695
80911;BME280;70359;51.420;7.032;2023-12-20T08:19:57;1000.041;;;8.09;64.1123
80911;BME280;70359;51.420;7.032;2023-12-20T08:22:22;1000.011;;;8.14;63.79395
80911;BME280;70359;51.420;7.032;2023-12-20T08:24:47;1000.036;;;8.15;63.62695
80911;BME280;70359;51.420;7.032;2023-12-20T08:27:12;1000.074;;;8.11;63.51953
80911;BME280;70359;51.420;7.032;2023-12-20T08:29:37;1000.073;;;8.01;63.4707
80911;BME280;70359;51.420;7.032;2023-12-20T08:32:02;1000.095;;;8.05;63.57715
80911;BME280;70359;51.420;7.032;2023-12-20T08:34:27;1000.05;;;8.13;63.67871
80911;BME280;70359;51.420;7.032;2023-12-20T08:36:52;1000.191;;;7.98;64.12988
80911;BME280;70359;51.420;7.032;2023-12-20T08:39:17;1000.15;;;8.03;63.7998
80911;BME280;70359;51.420;7.032;2023-12-20T08:41:42;1000.13;;;8;64.11035
80911;BME280;70359;51.420;7.032;2023-12-20T08:44:07;1000.156;;;8.11;63.7666
80911;BME280;70359;51.420;7.032;2023-12-20T08:46:32;1000.204;;;8.09;63.84277
80911;BME280;70359;51.420;7.032;2023-12-20T08:48:57;1000.175;;;8.19;63.65332
80911;BME280;70359;51.420;7.032;2023-12-20T08:51:22;1000.172;;;8.15;63.93066
80911;BME280;70359;51.420;7.032;2023-12-20T08:53:47;1000.154;;;8.24;63.53906
80911;BME280;70359;51.420;7.032;2023-12-20T08:56:12;1000.107;;;8.21;63.51074
80911;BME280;70359;51.420;7.032;2023-12-20T08:58:37;1000.098;;;8.07;63.30078
80911;BME280;70359;51.420;7.032;2023-12-20T09:01:02;1000.111;;;8.15;63.32324
80911;BME280;70359;51.420;7.032;2023-12-20T09:03:27;1000.061;;;8.15;62.89648
80911;BME280;70359;51.420;7.032;2023-12-20T09:05:52;1000.127;;;8.11;63.14844
80911;BME280;70359;51.420;7.032;2023-12-20T09:08:17;1000.022;;;8.2;62.80176
80911;BME280;70359;51.420;7.032;2023-12-20T09:10:42;1000.008;;;8.29;62.83691
80911;BME280;70359;51.420;7.032;2023-12-20T09:13:07;1000.027;;;8.28;62.68945
80911;BME280;70359;51.420;7.032;2023-12-20T09:15:32;999.9442;;;8.16;62.9541
80911;BME280;70359;51.420;7.032;2023-12-20T09:17:57;999.9852;;;8;63.30078
80911;BME280;70359;51.420;7.032;2023-12-20T09:20:22;999.9743;;;7.87;63.40625
80911;BME280;70359;51.420;7.032;2023-12-20T09:22:47;999.9392;;;7.81;63.96973
80911;BME280;70359;51.420;7.032;2023-12-20T09:25:12;999.9191;;;7.88;64.2168
80911;BME280;70359;51.420;7.032;2023-12-20T09:27:37;999.9594;;;7.94;63.73145
80911;BME280;70359;51.420;7.032;2023-12-20T09:30:02;1000.042;;;7.79;63.92285
80911;BME280;70359;51.420;7.032;2023-12-20T09:32:27;1000.036;;;7.81;63.96973
80911;BME280;70359;51.420;7.032;2023-12-20T09:34:52;1000.088;;;7.91;63.81445
80911;BME280;70359;51.420;7.032;2023-12-20T09:37:17;999.9883;;;8.01;63.93359
80911;BME280;70359;51.420;7.032;2023-12-20T09:39:42;999.9384;;;7.85;63.40234
80911;BME280;70359;51.420;7.032;2023-12-20T09:42:07;999.9769;;;7.89;64.01563
80911;BME280;70359;51.420;7.032;2023-12-20T09:44:32;999.9203;;;8.01;63.5498
80911;BME280;70359;51.420;7.032;2023-12-20T09:46:57;999.8836;;;8.03;63.48535
80911;BME280;70359;51.420;7.032;2023-12-20T09:49:22;999.8864;;;8.09;63.17969
80911;BME280;70359;51.420;7.032;2023-12-20T09:51:47;999.9275;;;8.09;63.1123
80911;BME280;70359;51.420;7.032;2023-12-20T09:54:12;999.9349;;;8.05;63.28516
80911;BME280;70359;51.420;7.032;2023-12-20T09:56:37;999.9275;;;8.06;62.92676
80911;BME280;70359;51.420;7.032;2023-12-20T09:59:02;999.9584;;;8.14;63.09766
80911;BME280;70359;51.420;7.032;2023-12-20T10:01:27;999.973;;;8.04;63.26172
80911;BME280;70359;51.420;7.032;2023-12-20T10:03:52;999.9766;;;8.11;63.04688
80911;BME280;70359;51.420;7.032;2023-12-20T10:06:17;1000.003;;;8.04;63.47656
80911;BME280;70359;51.420;7.032;2023-12-20T10:08:42;999.9705;;;8.12;62.9375
80911;BME280;70359;51.420;7.032;2023-12-20T10:11:07;999.9272;;;8.14;63.0752
80911;BME280;70359;51.420;7.032;2023-12-20T10:13:32;999.9702;;;8.18;62.97852
80911;BME280;70359;51.420;7.032;2023-12-20T10:15:57;999.9387;;;8.22;62.625
80911;BME280;70359;51.420;7.032;2023-12-20T10:18:22;999.9163;;;8.23;62.61523
80911;BME280;70359;51.420;7.032;2023-12-20T10:20:47;999.8925;;;8.23;63.06543
80911;BME280;70359;51.420;7.032;2023-12-20T10:23:12;999.8519;;;8.28;62.68945
80911;BME280;70359;51.420;7.032;2023-12-20T10:25:37;999.8502;;;8.24;62.66211
80911;BME280;70359;51.420;7.032;2023-12-20T10:28:15;999.7708;;;8.19;62.97852
80911;BME280;70359;51.420;7.032;2023-12-20T10:30:27;999.7626;;;8.26;63.16895
80911;BME280;70359;51.420;7.032;2023-12-20T10:32:52;999.6311;;;8.28;63.4209
80911;BME280;70359;51.420;7.032;2023-12-20T10:35:17;999.597;;;8.37;63.02832
80911;BME280;70359;51.420;7.032;2023-12-20T10:37:42;999.5831;;;8.4;62.70605
80911;BME280;70359;51.420;7.032;2023-12-20T10:40:07;999.6272;;;8.38;62.37793
80911;BME280;70359;51.420;7.032;2023-12-20T10:42:32;999.6152;;;8.33;62.68555
80911;BME280;70359;51.420;7.032;2023-12-20T10:44:58;999.6909;;;8.18;63.00098
80911;BME280;70359;51.420;7.032;2023-12-20T10:47:22;999.5739;;;8.23;63.03125
80911;BME280;70359;51.420;7.032;2023-12-20T10:49:47;999.5684;;;8.25;62.57324
80911;BME280;70359;51.420;7.032;2023-12-20T10:52:12;999.5652;;;8.32;62.94336
80911;BME280;70359;51.420;7.032;2023-12-20T10:54:37;999.6199;;;8.26;62.25781
80911;BME280;70359;51.420;7.032;2023-12-20T10:57:02;999.527;;;8.13;63.17383
80911;BME280;70359;51.420;7.032;2023-12-20T10:59:27;999.4892;;;8.24;62.81934
80911;BME280;70359;51.420;7.032;2023-12-20T11:01:52;999.4675;;;8.14;62.5918
80911;BME280;70359;51.420;7.032;2023-12-20T11:04:18;999.5605;;;8.18;63.09082
80911;BME280;70359;51.420;7.032;2023-12-20T11:06:42;999.6816;;;8.11;63.44043
80911;BME280;70359;51.420;7.032;2023-12-20T11:09:10;999.6908;;;8.26;62.78711
80911;BME280;70359;51.420;7.032;2023-12-20T11:11:33;999.6083;;;8.19;63.58691
80911;BME280;70359;51.420;7.032;2023-12-20T11:13:59;999.7159;;;8.16;63.45996
80911;BME280;70359;51.420;7.032;2023-12-20T11:16:22;999.605;;;8.07;63.60254
80911;BME280;70359;51.420;7.032;2023-12-20T11:18:47;999.6122;;;8.12;63.60059
80911;BME280;70359;51.420;7.032;2023-12-20T11:21:19;999.6667;;;8.2;63.65625
80911;BME280;70359;51.420;7.032;2023-12-20T11:23:37;999.6344;;;8.31;63.32422
80911;BME280;70359;51.420;7.032;2023-12-20T11:26:03;999.5331;;;8.31;63.66016
80911;BME280;70359;51.420;7.032;2023-12-20T11:28:27;999.4813;;;8.23;63.62793
80911;BME280;70359;51.420;7.032;2023-12-20T11:30:53;999.4529;;;8.36;63.48828
80911;BME280;70359;51.420;7.032;2023-12-20T11:33:18;999.4769;;;8.25;63.76465
80911;BME280;70359;51.420;7.032;2023-12-20T11:35:42;999.4161;;;8.31;63.53711
80911;BME280;70359;51.420;7.032;2023-12-20T11:38:07;999.4456;;;8.36;63.48828
80911;BME280;70359;51.420;7.032;2023-12-20T11:40:32;999.4028;;;8.43;63.07129
80911;BME280;70359;51.420;7.032;2023-12-20T11:42:57;999.4193;;;8.46;63.33398
80911;BME280;70359;51.420;7.032;2023-12-20T11:45:23;999.3175;;;8.51;62.86914
80911;BME280;70359;51.420;7.032;2023-12-20T11:47:47;999.3147;;;8.57;62.93359
80911;BME280;70359;51.420;7.032;2023-12-20T11:50:12;999.2737;;;8.56;62.85449
80911;BME280;70359;51.420;7.032;2023-12-20T11:52:37;999.2759;;;8.4;63.83105
80911;BME280;70359;51.420;7.032;2023-12-20T11:55:02;999.2875;;;8.51;63.28418
80911;BME280;70359;51.420;7.032;2023-12-20T11:57:27;999.2813;;;8.34;64.12695
80911;BME280;70359;51.420;7.032;2023-12-20T11:59:52;999.2004;;;8.44;63.44434
80911;BME280;70359;51.420;7.032;2023-12-20T12:02:17;999.2368;;;8.48;63.43945
80911;BME280;70359;51.420;7.032;2023-12-20T12:04:42;999.1812;;;8.39;63.70605
80911;BME280;70359;51.420;7.032;2023-12-20T12:07:07;999.1555;;;8.5;63.75684
80911;BME280;70359;51.420;7.032;2023-12-20T12:09:32;999.0705;;;8.5;63.80176
80911;BME280;70359;51.420;7.032;2023-12-20T12:11:57;999.0272;;;8.52;64.00684
80911;BME280;70359;51.420;7.032;2023-12-20T12:14:22;999.0528;;;8.56;63.6748
80911;BME280;70359;51.420;7.032;2023-12-20T12:16:47;999.1266;;;8.58;63.80078
80911;BME280;70359;51.420;7.032;2023-12-20T12:19:19;999.035;;;8.52;64.06152
80911;BME280;70359;51.420;7.032;2023-12-20T12:21:37;999.0055;;;8.53;64.24609
80911;BME280;70359;51.420;7.032;2023-12-20T12:24:10;998.9221;;;8.58;64.13867
80911;BME280;70359;51.420;7.032;2023-12-20T12:26:28;998.894;;;8.58;64.11719
80911;BME280;70359;51.420;7.032;2023-12-20T12:28:52;998.9522;;;8.6;63.97266
80911;BME280;70359;51.420;7.032;2023-12-20T12:31:17;999.0008;;;8.53;64.1543